Hepzibah, West Virginia
Current Conditions -  °F | °C
As of 4:53 AM on Thursday 23 Oct 2014 (Local Time) from KCKB Reporting Station
Overcast Overcast  
Wind Chill: 41°   Ceiling: 2900
Heat Index: 46°   Visibility: 10mi
Dew Point: 41°   Wind: 9mph
Humidity: 83%   Direction: 290°WNW
Pressure: 30.14"   Gusts: NA
Location:  39.33°N, 80.34°W
Report Text: KCKB 230853Z AUTO 29008KT 10SM FEW022 BKN029 OVC039 08/05 A3014 RMK AO2 SLP204 T00780050 57000 TSNO
Loading
Personal Weather Stations






























Interactive Weather Map
Tropical Storm Tracking
New forecast layout! Learn more

10-Day Weather Forecast

Advertisements
Track Severe Weather on mobile